Time;durP1;ratioP1;P1;durP2;ratioP2;P2;SDS_P1;SDS_P2;PMS_P1;PMS_P2;Temp;Humidity;BMP_temperature;BMP_pressure;BME280_temperature;BME280_humidity;BME280_pressure;Samples;Min_cycle;Max_cycle;Signal;HPM_P1;HPM_P2
2022/04/10 00:00:07;;;;;;;13.67;2.47;;;2.60;99.90;;;;;;5070882;28;20044;-77
2022/04/10 00:02:39;;;;;;;16.77;2.43;;;2.60;99.90;;;;;;5073309;28;20048;-76
2022/04/10 00:05:05;;;;;;;20.17;2.93;;;2.60;99.90;;;;;;5056377;28;20094;-77
2022/04/10 00:07:31;;;;;;;11.73;2.03;;;2.60;99.90;;;;;;5077313;28;20044;-77
2022/04/10 00:09:57;;;;;;;15.73;2.47;;;2.60;99.90;;;;;;5060650;28;20527;-77
2022/04/10 00:12:23;;;;;;;12.47;2.30;;;2.60;99.90;;;;;;5070314;28;20051;-76
2022/04/10 00:14:49;;;;;;;9.60;2.20;;;2.60;99.90;;;;;;5071645;28;20119;-76
2022/04/10 00:17:14;;;;;;;18.07;2.73;;;2.60;99.90;;;;;;5071218;28;20163;-76
2022/04/10 00:19:43;;;;;;;13.17;2.70;;;2.60;99.90;;;;;;5055663;28;20538;-76
2022/04/10 00:22:09;;;;;;;15.53;3.00;;;2.50;99.90;;;;;;5075410;28;20461;-77
2022/04/10 00:24:35;;;;;;;21.93;3.43;;;2.50;99.90;;;;;;5078606;28;20044;-76
2022/04/10 00:27:01;;;;;;;15.57;2.30;;;2.50;99.90;;;;;;5088961;28;20052;-78
2022/04/10 00:29:26;;;;;;;10.97;2.23;;;2.50;99.90;;;;;;5055640;28;20119;-76
2022/04/10 00:31:52;;;;;;;17.70;2.60;;;2.50;99.90;;;;;;5073145;28;20068;-76
2022/04/10 00:34:18;;;;;;;15.20;2.90;;;2.50;99.90;;;;;;5040914;28;20086;-76
2022/04/10 00:36:45;;;;;;;12.43;2.80;;;2.50;99.90;;;;;;5058715;28;20045;-76
2022/04/10 00:39:11;;;;;;;13.03;2.50;;;2.50;99.90;;;;;;5054549;28;20037;-75
2022/04/10 00:41:38;;;;;;;16.20;2.70;;;2.50;99.90;;;;;;5071348;28;20403;-76
2022/04/10 00:44:05;;;;;;;15.00;2.70;;;2.50;99.90;;;;;;5053602;28;20048;-76
2022/04/10 00:46:31;;;;;;;11.57;2.60;;;2.50;99.90;;;;;;5069924;28;20056;-77
2022/04/10 00:48:57;;;;;;;15.63;2.53;;;2.50;99.90;;;;;;5060027;28;20037;-76
2022/04/10 00:51:43;;;;;;;17.03;2.87;;;2.50;99.90;;;;;;5050635;28;20045;-77
2022/04/10 00:54:13;;;;;;;13.53;2.33;;;2.50;99.90;;;;;;5072537;28;20108;-76
2022/04/10 00:56:40;;;;;;;18.10;3.03;;;2.50;99.90;;;;;;5069179;28;20052;-77
2022/04/10 00:59:06;;;;;;;14.60;2.90;;;2.50;99.90;;;;;;5052199;28;20044;-77
2022/04/10 01:01:33;;;;;;;11.37;2.63;;;2.50;99.90;;;;;;5041455;28;20466;-76
2022/04/10 01:03:59;;;;;;;11.93;2.13;;;2.50;99.90;;;;;;5055251;28;20037;-76
2022/04/10 01:06:25;;;;;;;15.37;2.43;;;2.50;99.90;;;;;;5071380;28;20463;-77
2022/04/10 01:08:50;;;;;;;14.63;2.43;;;2.50;99.90;;;;;;5044721;28;20127;-77
2022/04/10 01:11:18;;;;;;;11.63;2.80;;;2.50;99.90;;;;;;5053246;28;20048;-77
2022/04/10 01:13:44;;;;;;;17.77;3.27;;;2.50;99.90;;;;;;5054005;28;20139;-76
2022/04/10 01:16:11;;;;;;;17.93;2.60;;;2.50;99.90;;;;;;5055880;28;20097;-76
2022/04/10 01:18:37;;;;;;;17.30;3.10;;;2.50;99.90;;;;;;5037214;28;20044;-76
2022/04/10 01:21:04;;;;;;;13.33;2.33;;;2.50;99.90;;;;;;5055831;28;20385;-76
2022/04/10 01:23:33;;;;;;;16.20;3.07;;;2.50;99.90;;;;;;5053410;28;20393;-76
2022/04/10 01:25:59;;;;;;;15.27;2.87;;;2.50;99.90;;;;;;5053462;28;20101;-76
2022/04/10 01:28:24;;;;;;;25.63;3.17;;;2.50;99.90;;;;;;5037418;28;20052;-77
2022/04/10 01:30:50;;;;;;;17.33;2.60;;;2.60;99.90;;;;;;5052499;28;20416;-76
2022/04/10 01:33:16;;;;;;;12.23;2.70;;;2.60;99.90;;;;;;5061750;28;20044;-77
2022/04/10 01:35:43;;;;;;;14.87;3.00;;;2.60;99.90;;;;;;5052554;28;20041;-76
2022/04/10 01:38:12;;;;;;;15.17;2.63;;;2.60;99.90;;;;;;5053196;28;20041;-76
2022/04/10 01:40:45;;;;;;;19.90;3.63;;;2.60;99.90;;;;;;5055313;28;20036;-76
2022/04/10 01:43:11;;;;;;;21.90;2.97;;;2.60;99.90;;;;;;5055267;28;20041;-76
2022/04/10 01:45:37;;;;;;;15.93;2.90;;;2.70;99.90;;;;;;5038650;28;20335;-76
2022/04/10 01:48:04;;;;;;;12.47;2.93;;;2.70;99.90;;;;;;5053540;28;20448;-76
2022/04/10 01:50:30;;;;;;;13.17;3.00;;;2.60;99.90;;;;;;5070067;28;20124;-76
2022/04/10 01:52:56;;;;;;;16.40;3.17;;;2.70;99.90;;;;;;5053613;28;20075;-76
2022/04/10 01:55:23;;;;;;;14.90;3.10;;;2.70;99.90;;;;;;5053348;28;20146;-77
2022/04/10 01:57:50;;;;;;;18.93;3.20;;;2.70;99.90;;;;;;5051035;28;20056;-77
2022/04/10 02:00:17;;;;;;;11.73;2.40;;;2.70;99.90;;;;;;5036739;28;20041;-76
2022/04/10 02:02:44;;;;;;;19.57;2.63;;;2.70;99.90;;;;;;5040572;28;20044;-76
2022/04/10 02:05:10;;;;;;;16.67;2.80;;;2.70;99.90;;;;;;5053964;28;20041;-76
2022/04/10 02:07:36;;;;;;;20.27;3.40;;;2.60;99.90;;;;;;5054041;28;20044;-76
2022/04/10 02:10:03;;;;;;;26.37;3.83;;;2.70;99.90;;;;;;5038302;28;20127;-77
2022/04/10 02:12:32;;;;;;;20.40;3.20;;;2.70;99.90;;;;;;5053213;28;20036;-76
2022/04/10 02:14:59;;;;;;;14.33;2.73;;;2.60;99.90;;;;;;5055195;28;20068;-76
2022/04/10 02:17:25;;;;;;;13.10;2.93;;;2.60;99.90;;;;;;5052952;28;20484;-76
2022/04/10 02:19:51;;;;;;;17.77;2.70;;;2.70;99.90;;;;;;5055669;28;20090;-76
2022/04/10 02:22:17;;;;;;;20.10;4.00;;;2.60;99.90;;;;;;5049454;28;20037;-76
2022/04/10 02:24:42;;;;;;;12.17;2.40;;;2.60;99.90;;;;;;5044021;28;20102;-77
2022/04/10 02:27:08;;;;;;;34.10;3.10;;;2.60;99.90;;;;;;5053086;28;20041;-76
2022/04/10 02:29:34;;;;;;;14.43;2.90;;;2.50;99.90;;;;;;5057513;28;20047;-76
2022/04/10 02:32:01;;;;;;;19.47;2.90;;;2.50;99.90;;;;;;5053143;28;20045;-76
2022/04/10 02:34:26;;;;;;;15.37;2.57;;;2.50;99.90;;;;;;5055996;28;20503;-76
2022/04/10 02:36:52;;;;;;;15.80;2.47;;;2.50;99.90;;;;;;5057030;28;20042;-76
2022/04/10 02:39:18;;;;;;;15.47;2.77;;;2.50;99.90;;;;;;5056160;28;20491;-76
2022/04/10 02:41:45;;;;;;;15.40;3.10;;;2.50;99.90;;;;;;5056537;28;20385;-76
2022/04/10 02:44:11;;;;;;;15.80;2.47;;;2.50;99.90;;;;;;5058994;28;20045;-76
2022/04/10 02:46:37;;;;;;;19.33;2.60;;;2.40;99.90;;;;;;5059776;28;20363;-76
2022/04/10 02:49:04;;;;;;;15.00;3.00;;;2.40;99.90;;;;;;5043680;28;20052;-76
2022/04/10 02:51:30;;;;;;;14.07;2.50;;;2.30;99.90;;;;;;5056530;28;20071;-76
2022/04/10 02:53:57;;;;;;;15.10;2.13;;;2.40;99.90;;;;;;5039517;28;20311;-76
2022/04/10 02:56:23;;;;;;;19.90;3.00;;;2.40;99.90;;;;;;5081975;28;20293;-76
2022/04/10 02:58:48;;;;;;;17.27;3.13;;;2.30;99.90;;;;;;5052880;28;20048;-76
2022/04/10 03:01:15;;;;;;;11.23;2.63;;;2.30;99.90;;;;;;5040377;28;20040;-76
2022/04/10 03:03:40;;;;;;;15.93;2.97;;;2.40;99.90;;;;;;5039738;28;20402;-76
2022/04/10 03:06:07;;;;;;;13.37;2.80;;;2.40;99.90;;;;;;5064552;28;20040;-76
2022/04/10 03:08:33;;;;;;;18.17;3.50;;;2.40;99.90;;;;;;5060332;28;20565;-76
2022/04/10 03:10:59;;;;;;;13.77;2.17;;;2.50;99.90;;;;;;5038724;28;20306;-76
2022/04/10 03:13:25;;;;;;;18.47;3.57;;;2.50;99.90;;;;;;5056804;28;20071;-77
2022/04/10 03:15:51;;;;;;;14.60;2.47;;;2.60;99.90;;;;;;5062437;28;20044;-76
2022/04/10 03:18:16;;;;;;;21.83;4.17;;;2.70;99.90;;;;;;5057090;28;20635;-76
2022/04/10 03:20:42;;;;;;;10.27;2.57;;;2.70;99.90;;;;;;5055720;28;20060;-76
2022/04/10 03:23:10;;;;;;;19.07;3.10;;;2.70;99.90;;;;;;5051042;28;20090;-77
2022/04/10 03:25:38;;;;;;;12.10;2.83;;;2.80;99.90;;;;;;5058225;28;20083;-76
2022/04/10 03:28:04;;;;;;;18.13;2.70;;;2.80;99.90;;;;;;5060734;28;20330;-77
2022/04/10 03:30:31;;;;;;;17.77;2.60;;;2.80;99.90;;;;;;5055752;28;20070;-77
2022/04/10 03:32:57;;;;;;;14.63;2.43;;;2.90;99.90;;;;;;5057943;28;20040;-77
2022/04/10 03:35:23;;;;;;;14.30;2.17;;;2.90;99.90;;;;;;5063263;28;20043;-76
2022/04/10 03:37:49;;;;;;;18.57;2.97;;;3.00;99.90;;;;;;5039089;28;20040;-77
2022/04/10 03:40:16;;;;;;;16.20;2.87;;;3.00;99.90;;;;;;5058766;28;20403;-77
2022/04/10 03:42:46;;;;;;;20.03;2.87;;;3.00;99.90;;;;;;5092014;28;20045;-77
2022/04/10 03:45:13;;;;;;;16.57;3.23;;;3.10;99.90;;;;;;5055462;28;20036;-77
2022/04/10 03:47:39;;;;;;;14.13;2.20;;;3.00;99.90;;;;;;5039014;28;20041;-77
2022/04/10 03:50:06;;;;;;;20.83;3.00;;;3.10;99.90;;;;;;5072997;28;20039;-77
2022/04/10 03:52:33;;;;;;;17.10;2.50;;;3.10;99.90;;;;;;5104726;28;20044;-77
2022/04/10 03:54:59;;;;;;;16.20;2.97;;;3.10;99.90;;;;;;5058119;28;20490;-76
2022/04/10 03:57:26;;;;;;;16.37;2.80;;;3.10;99.90;;;;;;5058237;28;20047;-77
2022/04/10 03:59:52;;;;;;;13.10;2.67;;;3.00;99.90;;;;;;5057436;28;20045;-79
2022/04/10 04:02:18;;;;;;;7.33;2.00;;;2.90;99.90;;;;;;5039079;28;20040;-78
2022/04/10 04:04:45;;;;;;;9.63;1.77;;;3.00;99.90;;;;;;5075423;28;20068;-78
2022/04/10 04:07:13;;;;;;;4.73;1.20;;;2.80;99.90;;;;;;5057842;28;20072;-78
2022/04/10 04:09:40;;;;;;;5.47;1.00;;;2.80;99.90;;;;;;5060667;28;20298;-78
2022/04/10 04:12:08;;;;;;;5.67;1.10;;;2.80;99.90;;;;;;5059679;28;20049;-78
2022/04/10 04:14:36;;;;;;;3.03;1.17;;;2.80;99.90;;;;;;5056900;28;20427;-78
2022/04/10 04:17:02;;;;;;;7.00;1.30;;;2.90;99.90;;;;;;5058526;28;20503;-78
2022/04/10 04:19:28;;;;;;;8.30;1.60;;;2.90;99.90;;;;;;5073032;28;20111;-78
2022/04/10 04:21:54;;;;;;;9.53;1.30;;;2.90;99.90;;;;;;5060177;28;20127;-77
2022/04/10 04:24:20;;;;;;;5.53;1.60;;;2.90;99.90;;;;;;5059319;28;20087;-78
2022/04/10 04:26:46;;;;;;;11.00;1.73;;;2.90;99.90;;;;;;5029294;28;20056;-78
2022/04/10 04:29:14;;;;;;;7.30;1.73;;;2.90;99.90;;;;;;5054807;28;20043;-78
2022/04/10 04:31:41;;;;;;;10.77;1.70;;;2.90;99.90;;;;;;5039948;28;20041;-78
2022/04/10 04:34:09;;;;;;;6.23;1.67;;;2.80;99.90;;;;;;5037941;28;20045;-78
2022/04/10 04:36:35;;;;;;;3.83;1.30;;;2.70;99.90;;;;;;5052940;28;20042;-78
2022/04/10 04:39:01;;;;;;;6.50;1.33;;;2.70;99.90;;;;;;5076020;28;20040;-78
2022/04/10 04:41:26;;;;;;;4.77;1.40;;;2.70;99.90;;;;;;5037939;28;20051;-78
2022/04/10 04:43:54;;;;;;;8.93;1.57;;;2.60;99.90;;;;;;5055758;28;20086;-77
2022/04/10 04:46:20;;;;;;;7.13;1.43;;;2.50;99.90;;;;;;5059140;28;20483;-77
2022/04/10 04:48:47;;;;;;;7.27;1.50;;;2.50;99.90;;;;;;5058828;28;20047;-78
2022/04/10 04:51:14;;;;;;;7.03;1.37;;;2.40;99.90;;;;;;5057571;28;20139;-77
2022/04/10 04:53:40;;;;;;;8.87;1.70;;;2.40;99.90;;;;;;5042661;28;20123;-78
2022/04/10 04:56:06;;;;;;;7.20;1.50;;;2.30;99.90;;;;;;5047659;28;20043;-80
2022/04/10 04:58:36;;;;;;;10.33;1.30;;;2.30;99.90;;;;;;5055176;28;20575;-78
2022/04/10 05:01:03;;;;;;;9.80;1.70;;;2.30;99.90;;;;;;5051536;28;20302;-78
2022/04/10 05:03:30;;;;;;;6.13;1.37;;;2.30;99.90;;;;;;5044424;28;20067;-78
2022/04/10 05:05:57;;;;;;;10.73;1.77;;;2.20;99.90;;;;;;5055396;28;20051;-78
2022/04/10 05:08:27;;;;;;;12.30;1.60;;;2.30;99.90;;;;;;5053257;28;20097;-78
2022/04/10 05:10:54;;;;;;;8.30;1.90;;;2.30;99.90;;;;;;5055077;28;20068;-78
2022/04/10 05:13:21;;;;;;;7.87;1.40;;;2.30;99.90;;;;;;5037160;28;20438;-78
2022/04/10 05:15:48;;;;;;;7.77;1.73;;;2.30;99.90;;;;;;5052099;28;20393;-78
2022/04/10 05:18:17;;;;;;;6.43;1.70;;;2.40;99.90;;;;;;5043689;28;20048;-78
2022/04/10 05:20:45;;;;;;;7.23;1.83;;;2.40;99.90;;;;;;5045468;28;20135;-77
2022/04/10 05:23:18;;;;;;;9.70;1.93;;;2.40;99.90;;;;;;5051205;28;20306;-77
2022/04/10 05:25:51;;;;;;;10.07;1.93;;;2.50;99.90;;;;;;5041092;28;20060;-77
2022/04/10 05:28:16;;;;;;;6.70;1.60;;;2.60;99.90;;;;;;5050367;28;20298;-78
2022/04/10 05:30:43;;;;;;;14.37;2.13;;;2.90;99.90;;;;;;5052266;28;20055;-78
2022/04/10 05:33:13;;;;;;;6.80;1.67;;;3.00;99.90;;;;;;5051889;28;20123;-78
2022/04/10 05:35:39;;;;;;;6.63;2.00;;;3.30;99.90;;;;;;5051739;28;20136;-78
2022/04/10 05:38:06;;;;;;;8.03;1.70;;;3.50;99.90;;;;;;5051850;28;20036;-78
2022/04/10 05:40:35;;;;;;;7.97;1.83;;;3.70;99.90;;;;;;5052628;28;20128;-78
2022/04/10 05:43:01;;;;;;;11.87;1.80;;;3.90;99.90;;;;;;5050692;28;20067;-77
2022/04/10 05:45:27;;;;;;;7.57;2.17;;;4.00;99.90;;;;;;5066448;28;20052;-77
2022/04/10 05:47:55;;;;;;;6.27;1.50;;;3.90;99.90;;;;;;5050515;28;20083;-78
2022/04/10 05:50:25;;;;;;;6.73;1.70;;;3.90;99.90;;;;;;5082630;28;20041;-78
2022/04/10 05:52:51;;;;;;;9.47;1.80;;;3.80;99.90;;;;;;5033900;28;20113;-77
2022/04/10 05:55:19;;;;;;;9.47;2.33;;;3.80;99.90;;;;;;5067343;28;20063;-78
2022/04/10 05:57:48;;;;;;;12.60;2.40;;;4.00;99.90;;;;;;5049614;28;20052;-77
2022/04/10 06:00:16;;;;;;;9.30;1.90;;;4.20;99.90;;;;;;5050982;28;20097;-78
2022/04/10 06:02:44;;;;;;;7.93;1.87;;;4.30;99.90;;;;;;5063177;28;20102;-79
2022/04/10 06:05:18;;;;;;;8.20;1.53;;;4.50;99.90;;;;;;5086349;28;20047;-78
2022/04/10 06:07:54;;;;;;;6.20;1.87;;;4.60;99.90;;;;;;5083791;28;20435;-78
2022/04/10 06:10:20;;;;;;;8.77;1.70;;;4.60;99.90;;;;;;5086188;28;20090;-78
2022/04/10 06:12:47;;;;;;;5.27;1.60;;;4.50;99.90;;;;;;5090648;28;20064;-79
2022/04/10 06:15:16;;;;;;;9.07;1.50;;;4.40;99.90;;;;;;5072305;28;20040;-79
2022/04/10 06:17:43;;;;;;;7.00;1.40;;;4.40;99.90;;;;;;5073011;28;20044;-79
2022/04/10 06:20:10;;;;;;;5.50;1.30;;;4.40;99.90;;;;;;5100429;28;20070;-79
2022/04/10 06:22:37;;;;;;;3.37;1.23;;;4.50;99.90;;;;;;5056405;28;20149;-78
2022/04/10 06:25:05;;;;;;;6.97;1.40;;;4.60;99.90;;;;;;5068982;28;20071;-78
2022/04/10 06:27:31;;;;;;;6.53;1.43;;;5.00;99.90;;;;;;5086592;28;20069;-78
2022/04/10 06:29:58;;;;;;;5.33;1.00;;;5.20;99.90;;;;;;5073464;28;20084;-78
2022/04/10 06:32:25;;;;;;;6.97;1.40;;;5.20;99.90;;;;;;5055416;28;20055;-79
2022/04/10 06:34:53;;;;;;;9.33;1.30;;;5.20;99.90;;;;;;5090483;28;20040;-78
2022/04/10 06:37:19;;;;;;;4.93;1.47;;;5.10;99.90;;;;;;5056308;28;20036;-78
2022/04/10 06:39:46;;;;;;;7.13;1.60;;;5.10;99.90;;;;;;5072522;28;20041;-79
2022/04/10 06:42:14;;;;;;;5.70;1.67;;;5.50;99.90;;;;;;5055239;28;20067;-78
2022/04/10 06:44:53;;;;;;;8.17;1.30;;;5.80;99.90;;;;;;5055842;28;20037;-79
2022/04/10 06:47:44;;;;;;;8.33;1.23;;;6.30;99.90;;;;;;5055951;28;20047;-79
2022/04/10 06:50:09;;;;;;;7.70;1.73;;;6.70;99.90;;;;;;5055074;28;20062;-78
2022/04/10 06:52:35;;;;;;;6.10;1.57;;;6.90;99.90;;;;;;5055109;28;20048;-79
2022/04/10 06:55:02;;;;;;;5.73;1.73;;;7.30;99.90;;;;;;5056437;28;20044;-79
2022/04/10 06:57:28;;;;;;;5.33;1.20;;;8.20;99.90;;;;;;5053741;28;20546;-78
2022/04/10 06:59:54;;;;;;;4.87;1.23;;;8.90;99.90;;;;;;5089521;28;20104;-79
2022/04/10 07:02:20;;;;;;;6.37;1.60;;;8.80;99.90;;;;;;5056037;28;20495;-78
2022/04/10 07:04:53;;;;;;;6.53;1.60;;;8.80;99.90;;;;;;5084377;28;20590;-79
2022/04/10 07:07:19;;;;;;;7.47;1.43;;;8.80;99.90;;;;;;5059880;28;20110;-78
2022/04/10 07:09:45;;;;;;;5.80;1.30;;;8.90;99.90;;;;;;5040390;28;20056;-79
2022/04/10 07:12:12;;;;;;;11.57;2.00;;;8.70;99.90;;;;;;5053844;28;20074;-77
2022/04/10 07:14:42;;;;;;;3.47;1.17;;;8.60;99.90;;;;;;5036714;28;20481;-79
2022/04/10 07:17:09;;;;;;;8.70;1.40;;;8.60;99.90;;;;;;5067948;28;20050;-79
2022/04/10 07:19:35;;;;;;;7.00;1.30;;;8.50;99.90;;;;;;5088284;28;20333;-79
2022/04/10 07:24:47;;;;;;;5.87;1.40;;;8.30;99.90;;;;;;5042053;28;20431;-79
2022/04/10 07:27:13;;;;;;;9.97;1.53;;;8.10;99.90;;;;;;5074171;28;20040;-78
2022/04/10 07:29:51;;;;;;;9.50;1.97;;;7.90;99.90;;;;;;5056453;28;20518;-78
2022/04/10 07:32:18;;;;;;;12.57;1.93;;;7.80;99.90;;;;;;5075670;28;20044;-78
2022/04/10 07:34:51;;;;;;;5.87;1.83;;;7.90;99.90;;;;;;5039906;28;20055;-80
2022/04/10 07:37:34;;;;;;;11.30;2.07;;;7.90;99.90;;;;;;5048686;28;20036;-80
2022/04/10 07:40:02;;;;;;;9.87;1.77;;;7.90;99.90;;;;;;5057673;28;20442;-79
2022/04/10 07:42:29;;;;;;;6.10;1.70;;;8.20;99.90;;;;;;5041860;28;20040;-79
2022/04/10 07:44:59;;;;;;;11.20;1.50;;;8.40;99.90;;;;;;5037867;28;20755;-79
2022/04/10 07:47:31;;;;;;;10.57;2.00;;;8.60;99.90;;;;;;5062669;28;20054;-79
2022/04/10 07:49:58;;;;;;;5.90;1.57;;;8.70;99.90;;;;;;5061577;28;20033;-79
2022/04/10 07:52:24;;;;;;;12.97;1.93;;;8.70;99.90;;;;;;5057489;28;20040;-79
2022/04/10 07:55:00;;;;;;;9.70;1.45;;;8.80;99.90;;;;;;5055190;28;20051;-78
2022/04/10 07:57:26;;;;;;;10.80;1.97;;;8.80;99.90;;;;;;5055519;28;20055;-78
2022/04/10 07:59:52;;;;;;;9.63;1.90;;;8.80;99.90;;;;;;5072541;28;20040;-78
2022/04/10 08:02:37;;;;;;;11.85;2.20;;;8.80;99.90;;;;;;5059645;28;20055;-79
2022/04/10 08:05:03;;;;;;;7.70;2.00;;;8.70;99.90;;;;;;5035404;28;20071;-79
2022/04/10 08:07:54;;;;;;;15.83;2.10;;;8.70;99.90;;;;;;5071816;28;20041;-79
2022/04/10 08:10:22;;;;;;;10.37;2.10;;;8.70;99.90;;;;;;5058842;28;20449;-79
2022/04/10 08:12:48;;;;;;;12.23;2.10;;;8.90;99.90;;;;;;5105597;28;20388;-78
2022/04/10 08:15:14;;;;;;;12.00;1.90;;;9.00;99.90;;;;;;5055499;28;20098;-80
2022/04/10 08:17:40;;;;;;;7.27;1.77;;;9.00;99.90;;;;;;5075612;28;20079;-79
2022/04/10 08:20:08;;;;;;;8.43;1.80;;;9.00;99.90;;;;;;5058146;28;20032;-79
2022/04/10 08:22:36;;;;;;;14.80;1.80;;;9.10;99.90;;;;;;5072457;28;20082;-79
2022/04/10 08:25:03;;;;;;;8.20;2.17;;;9.10;99.90;;;;;;5072740;28;20047;-77
2022/04/10 08:27:31;;;;;;;7.93;1.80;;;9.20;99.90;;;;;;5073448;28;20041;-80
2022/04/10 08:29:57;;;;;;;10.90;2.00;;;9.30;99.90;;;;;;5074271;28;20148;-77
2022/04/10 08:32:23;;;;;;;10.73;1.87;;;9.20;99.90;;;;;;5053576;28;20561;-78
2022/04/10 08:34:49;;;;;;;12.43;2.63;;;9.10;99.90;;;;;;5052065;28;20052;-79
2022/04/10 08:37:15;;;;;;;11.43;1.83;;;8.90;99.90;;;;;;5052473;28;20115;-78
2022/04/10 08:39:40;;;;;;;9.00;1.83;;;9.10;99.90;;;;;;5069693;28;20043;-78
2022/04/10 08:42:08;;;;;;;11.40;1.87;;;9.60;99.90;;;;;;5071640;28;20068;-79
2022/04/10 08:44:36;;;;;;;8.20;1.93;;;9.80;99.90;;;;;;5052431;28;20028;-80
2022/04/10 08:47:03;;;;;;;14.53;2.10;;;10.30;99.90;;;;;;5053934;28;20071;-79
2022/04/10 08:49:29;;;;;;;11.50;1.83;;;11.20;99.90;;;;;;5070924;28;20041;-79
2022/04/10 08:51:56;;;;;;;10.13;2.13;;;11.60;99.90;;;;;;5069960;28;20519;-77
2022/04/10 08:54:22;;;;;;;12.40;1.63;;;11.60;99.90;;;;;;5055810;28;20044;-78
2022/04/10 08:56:50;;;;;;;12.03;1.80;;;11.50;99.90;;;;;;5040009;28;20127;-78
2022/04/10 08:59:17;;;;;;;10.40;2.00;;;11.10;99.90;;;;;;5076047;28;20040;-79
2022/04/10 09:01:44;;;;;;;11.43;2.03;;;10.60;99.90;;;;;;5071730;28;20710;-79
2022/04/10 09:04:10;;;;;;;13.13;2.27;;;10.30;99.90;;;;;;5074418;28;20533;-79
2022/04/10 09:06:38;;;;;;;8.53;2.67;;;9.90;99.90;;;;;;5048960;28;20048;-79
2022/04/10 09:09:11;;;;;;;12.23;2.57;;;9.60;99.90;;;;;;5056226;28;20029;-81
2022/04/10 09:11:37;;;;;;;10.90;2.50;;;9.40;99.90;;;;;;5060022;28;20097;-79
2022/04/10 09:14:03;;;;;;;12.37;2.40;;;9.20;99.90;;;;;;5051601;28;20040;-79
2022/04/10 09:16:29;;;;;;;9.73;2.27;;;9.50;99.90;;;;;;5053012;28;20045;-79
2022/04/10 09:19:00;;;;;;;8.37;2.03;;;10.10;99.90;;;;;;5039400;28;20412;-80
2022/04/10 09:21:28;;;;;;;7.97;2.03;;;10.80;99.90;;;;;;5053961;28;20097;-79
2022/04/10 09:24:01;;;;;;;10.77;2.43;;;11.40;99.90;;;;;;5073952;28;20044;-78
2022/04/10 09:26:42;;;;;;;12.45;2.22;;;11.60;99.90;;;;;;5069136;28;20047;-79
2022/04/10 09:29:08;;;;;;;12.30;1.83;;;11.30;99.90;;;;;;5070143;28;20067;-79
2022/04/10 09:31:34;;;;;;;10.47;2.03;;;11.10;99.90;;;;;;5053834;28;20037;-80
2022/04/10 09:34:03;;;;;;;9.03;1.83;;;10.90;99.90;;;;;;5072084;28;20044;-80
2022/04/10 09:36:35;;;;;;;7.63;2.00;;;10.70;99.90;;;;;;5088080;28;20079;-79
2022/04/10 09:39:03;;;;;;;10.73;2.07;;;11.30;99.90;;;;;;5055276;28;20111;-79
2022/04/10 09:41:29;;;;;;;8.87;1.67;;;12.70;99.90;;;;;;5086426;28;20040;-79
2022/04/10 09:43:58;;;;;;;12.40;2.00;;;14.00;99.90;;;;;;5053731;28;20458;-80
2022/04/10 09:46:24;;;;;;;10.93;1.97;;;14.30;99.90;;;;;;5038149;28;20424;-80
2022/04/10 09:48:50;;;;;;;14.07;2.03;;;14.80;99.90;;;;;;5060086;28;20109;-80
2022/04/10 09:51:17;;;;;;;6.37;1.77;;;15.60;99.90;;;;;;5054983;28;20103;-79
2022/04/10 09:54:01;;;;;;;8.60;1.90;;;16.00;97.20;;;;;;5061916;28;20044;-80
2022/04/10 09:56:28;;;;;;;10.10;2.10;;;16.20;94.80;;;;;;5052070;28;20458;-78
2022/04/10 09:58:57;;;;;;;6.03;1.40;;;16.10;93.50;;;;;;5056959;28;20048;-80
2022/04/10 10:01:24;;;;;;;6.50;1.53;;;15.50;93.70;;;;;;5055710;28;20033;-80
2022/04/10 10:03:51;;;;;;;13.20;2.20;;;15.00;95.00;;;;;;5073408;28;20130;-80
2022/04/10 10:06:20;;;;;;;10.10;1.97;;;15.10;96.10;;;;;;5052756;28;20708;-80
2022/04/10 10:08:47;;;;;;;4.27;1.60;;;16.00;96.40;;;;;;5040808;28;20114;-80
2022/04/10 10:11:13;;;;;;;12.73;1.90;;;16.50;95.00;;;;;;5061915;28;20047;-80
2022/04/10 10:13:40;;;;;;;6.37;1.60;;;16.50;94.10;;;;;;5071830;28;20053;-80
2022/04/10 10:16:07;;;;;;;9.30;1.60;;;16.00;93.20;;;;;;5054878;28;20514;-78
2022/04/10 10:18:33;;;;;;;8.10;1.80;;;15.50;93.00;;;;;;5056692;28;20058;-79
2022/04/10 10:20:59;;;;;;;8.97;1.90;;;14.80;94.00;;;;;;5054763;28;20033;-79
2022/04/10 10:23:26;;;;;;;11.20;2.03;;;14.10;94.60;;;;;;5054460;28;20372;-80
2022/04/10 10:26:03;;;;;;;6.13;1.67;;;14.10;95.10;;;;;;5074149;28;20036;-79
2022/04/10 10:28:43;;;;;;;7.97;1.80;;;14.50;94.60;;;;;;5052907;28;20060;-80
2022/04/10 10:31:43;;;;;;;7.27;1.57;;;15.10;94.40;;;;;;5053655;28;20076;-79
2022/04/10 10:34:10;;;;;;;7.67;1.93;;;15.80;94.00;;;;;;5050430;28;20434;-80
2022/04/10 10:36:36;;;;;;;8.53;2.00;;;16.10;93.30;;;;;;5052683;28;20076;-80
2022/04/10 10:39:05;;;;;;;8.60;1.80;;;16.40;92.60;;;;;;5069070;28;20058;-80
2022/04/10 10:41:33;;;;;;;7.57;1.70;;;16.80;91.70;;;;;;5057474;28;20068;-80
2022/04/10 10:44:15;;;;;;;6.77;1.60;;;17.70;91.70;;;;;;5036865;28;20037;-79
2022/04/10 10:46:56;;;;;;;6.70;1.50;;;18.30;90.40;;;;;;5070695;28;20053;-78
2022/04/10 10:49:22;;;;;;;11.73;1.80;;;18.50;85.90;;;;;;5049292;28;20047;-79
2022/04/10 10:51:49;;;;;;;8.70;2.40;;;17.60;83.80;;;;;;5068321;28;20048;-79
2022/04/10 10:54:21;;;;;;;7.33;1.60;;;16.40;85.60;;;;;;5070510;28;20049;-80
2022/04/10 10:56:47;;;;;;;9.40;1.70;;;15.40;90.20;;;;;;5057612;28;20529;-80
2022/04/10 10:59:25;;;;;;;11.47;1.83;;;14.40;91.30;;;;;;5077096;28;20071;-80
2022/04/10 11:01:53;;;;;;;7.80;1.53;;;14.50;93.90;;;;;;5075537;28;20044;-80
2022/04/10 11:04:20;;;;;;;10.10;1.60;;;15.40;93.30;;;;;;5074872;28;20052;-80
2022/04/10 11:06:50;;;;;;;5.33;1.40;;;16.20;92.50;;;;;;5057696;28;20078;-79
2022/04/10 11:09:22;;;;;;;6.53;1.53;;;17.00;91.80;;;;;;5055149;28;20055;-79
2022/04/10 11:11:49;;;;;;;9.07;1.80;;;17.80;91.90;;;;;;5072981;28;20105;-77
2022/04/10 11:14:31;;;;;;;8.90;1.60;;;17.70;88.90;;;;;;5054112;28;20062;-80
2022/04/10 11:17:07;;;;;;;7.63;1.43;;;16.70;87.90;;;;;;5048814;28;20062;-80
2022/04/10 11:19:34;;;;;;;9.63;1.67;;;16.10;91.50;;;;;;5072777;28;20043;-79
2022/04/10 11:22:00;;;;;;;11.27;1.70;;;16.50;91.50;;;;;;5073938;28;20102;-80
2022/04/10 11:24:28;;;;;;;5.07;1.30;;;16.90;90.00;;;;;;5055350;28;20041;-80
2022/04/10 11:26:54;;;;;;;6.80;1.63;;;17.20;84.80;;;;;;5053394;28;20078;-78
2022/04/10 11:29:20;;;;;;;6.90;1.33;;;17.30;86.70;;;;;;5054673;28;20071;-78
2022/04/10 11:31:52;;;;;;;5.23;1.33;;;17.10;84.60;;;;;;5054489;28;20055;-80
2022/04/10 11:34:21;;;;;;;2.90;1.50;;;16.90;87.60;;;;;;5072369;28;20044;-79
2022/04/10 11:36:55;;;;;;;5.33;1.20;;;17.20;88.10;;;;;;5071002;28;20047;-79
2022/04/10 11:39:25;;;;;;;;;;;17.60;86.60;;;;;;5037029;28;20044;-79
2022/04/10 11:41:52;;;;;;;4.50;1.33;;;17.50;83.50;;;;;;5070235;28;19943;-80
2022/04/10 11:44:19;;;;;;;5.83;1.07;;;17.40;86.20;;;;;;5070605;28;20068;-78
2022/04/10 11:46:45;;;;;;;6.20;1.60;;;17.50;86.90;;;;;;5073071;28;20339;-80
2022/04/10 11:49:12;;;;;;;3.37;1.27;;;17.50;85.70;;;;;;5071218;28;20051;-80
2022/04/10 11:51:50;;;;;;;4.73;1.30;;;17.50;87.70;;;;;;5071452;28;20048;-79
2022/04/10 11:54:23;;;;;;;8.13;1.70;;;17.60;83.80;;;;;;5036662;28;20083;-80
2022/04/10 11:56:49;;;;;;;8.98;2.15;;;17.40;85.30;;;;;;5084799;28;20044;-78
2022/04/10 11:59:16;;;;;;;6.90;1.47;;;17.30;85.50;;;;;;5070218;28;20098;-77
2022/04/10 12:01:42;;;;;;;7.53;1.93;;;17.40;85.50;;;;;;5072426;28;20143;-79
2022/04/10 12:04:08;;;;;;;8.57;1.70;;;17.40;84.50;;;;;;5069065;28;20128;-77
2022/04/10 12:06:34;;;;;;;4.83;1.23;;;17.20;80.70;;;;;;5104776;28;20115;-78
2022/04/10 12:09:00;;;;;;;6.27;1.60;;;16.40;81.60;;;;;;5066792;28;20044;-79
2022/04/10 12:11:26;;;;;;;4.53;1.53;;;15.80;81.70;;;;;;5072155;28;20033;-79
2022/04/10 12:13:51;;;;;;;4.80;1.33;;;15.40;85.60;;;;;;5054640;28;20102;-77
2022/04/10 12:16:19;;;;;;;8.27;1.73;;;15.20;88.70;;;;;;5070414;28;20037;-78
2022/04/10 12:18:49;;;;;;;10.60;1.83;;;15.50;89.00;;;;;;5071461;28;20045;-79
2022/04/10 12:21:16;;;;;;;4.97;1.00;;;16.00;87.40;;;;;;5053349;28;20411;-80
2022/04/10 12:23:41;;;;;;;4.83;1.10;;;16.30;86.90;;;;;;5034448;28;20037;-79
2022/04/10 12:26:08;;;;;;;6.30;1.50;;;16.70;81.60;;;;;;5051884;28;20044;-79
2022/04/10 12:28:34;;;;;;;3.83;0.97;;;17.00;81.80;;;;;;5069077;28;20044;-79
2022/04/10 12:31:01;;;;;;;6.63;1.73;;;17.20;80.60;;;;;;5072899;28;20507;-80
2022/04/10 12:33:29;;;;;;;5.10;1.20;;;17.20;81.30;;;;;;5038368;28;20130;-78
2022/04/10 12:35:54;;;;;;;6.87;1.60;;;17.40;80.00;;;;;;5070110;28;20044;-78
2022/04/10 12:38:20;;;;;;;6.83;1.30;;;17.40;78.10;;;;;;5056454;28;20075;-78
2022/04/10 12:40:46;;;;;;;7.97;1.20;;;17.20;78.50;;;;;;5042037;28;20040;-78
2022/04/10 12:43:12;;;;;;;5.03;1.17;;;17.10;76.90;;;;;;5058484;28;20044;-79
2022/04/10 12:45:40;;;;;;;6.47;1.40;;;16.50;76.60;;;;;;5037141;28;20047;-77
2022/04/10 12:48:19;;;;;;;7.17;1.50;;;15.50;75.50;;;;;;5073889;28;20041;-80
2022/04/10 12:50:46;;;;;;;7.17;1.30;;;14.80;80.70;;;;;;5057810;28;20078;-79
2022/04/10 12:53:12;;;;;;;6.83;1.80;;;15.10;81.90;;;;;;5076452;28;20050;-79